createdAt,value
2022-08-27T00:00:17.389Z,2.92
2022-08-27T00:02:44.443Z,2.45
2022-08-27T00:05:13.428Z,3.30
2022-08-27T00:07:41.072Z,3.30
2022-08-27T00:10:10.483Z,3.10
2022-08-27T00:12:37.695Z,3.15
2022-08-27T00:15:06.252Z,2.75
2022-08-27T00:17:33.640Z,3.15
2022-08-27T00:20:00.256Z,2.80
2022-08-27T00:22:26.861Z,2.83
2022-08-27T00:24:53.551Z,3.10
2022-08-27T00:27:20.161Z,2.85
2022-08-27T00:29:48.325Z,3.10
2022-08-27T00:32:15.956Z,2.83
2022-08-27T00:34:42.589Z,2.55
2022-08-27T00:37:09.278Z,2.58
2022-08-27T00:39:37.135Z,2.42
2022-08-27T00:42:07.908Z,2.50
2022-08-27T00:44:34.682Z,2.70
2022-08-27T00:47:05.755Z,2.58
2022-08-27T00:49:40.613Z,2.20
2022-08-27T00:52:33.528Z,2.63
2022-08-27T00:55:13.920Z,2.83
2022-08-27T00:57:43.289Z,2.40
2022-08-27T01:00:15.748Z,2.42
2022-08-27T01:02:43.630Z,2.75
2022-08-27T01:05:15.891Z,2.13
2022-08-27T01:07:47.738Z,3.15
2022-08-27T01:12:43.183Z,2.33
2022-08-27T01:15:16.946Z,2.60
2022-08-27T01:17:48.045Z,2.20
2022-08-27T01:20:42.992Z,2.20
2022-08-27T01:23:37.663Z,2.42
2022-08-27T01:26:07.258Z,2.60
2022-08-27T01:28:37.737Z,2.60
2022-08-27T01:31:09.313Z,2.40
2022-08-27T01:33:36.437Z,2.70
2022-08-27T01:36:03.923Z,2.50
2022-08-27T01:38:31.774Z,2.45
2022-08-27T01:41:00.282Z,3.17
2022-08-27T01:43:28.191Z,2.35
2022-08-27T01:45:54.882Z,2.65
2022-08-27T01:48:22.472Z,2.30
2022-08-27T01:50:49.658Z,2.08
2022-08-27T01:53:22.155Z,2.80
2022-08-27T01:55:51.751Z,2.92
2022-08-27T01:58:21.375Z,2.47
2022-08-27T02:00:56.615Z,2.70
2022-08-27T02:03:23.743Z,2.33
2022-08-27T02:05:50.560Z,2.70
2022-08-27T02:08:18.398Z,2.17
2022-08-27T02:10:46.867Z,2.33
2022-08-27T02:13:13.611Z,2.80
2022-08-27T02:15:41.364Z,2.00
2022-08-27T02:18:09.631Z,2.33
2022-08-27T02:20:37.022Z,2.85
2022-08-27T02:23:04.888Z,2.22
2022-08-27T02:25:31.783Z,2.10
2022-08-27T02:28:00.423Z,2.83
2022-08-27T02:30:28.910Z,2.72
2022-08-27T02:32:55.759Z,2.50
2022-08-27T02:35:24.797Z,2.80
2022-08-27T02:37:52.177Z,2.58
2022-08-27T02:40:21.433Z,2.72
2022-08-27T02:42:48.271Z,2.83
2022-08-27T02:45:16.999Z,2.58
2022-08-27T02:47:44.085Z,2.47
2022-08-27T02:50:11.854Z,3.00
2022-08-27T02:52:38.496Z,2.72
2022-08-27T02:55:06.343Z,3.20
2022-08-27T02:57:36.472Z,2.85
2022-08-27T03:00:07.042Z,2.72
2022-08-27T03:02:33.929Z,2.25
2022-08-27T03:05:00.614Z,1.90
2022-08-27T03:07:27.277Z,2.45
2022-08-27T03:09:53.899Z,2.80
2022-08-27T03:12:20.485Z,2.30
2022-08-27T03:14:49.635Z,2.00
2022-08-27T03:17:34.921Z,2.15
2022-08-27T03:20:02.301Z,2.22
2022-08-27T03:22:29.255Z,2.90
2022-08-27T03:24:56.454Z,2.92
2022-08-27T03:27:23.146Z,2.58
2022-08-27T03:29:49.831Z,2.90
2022-08-27T03:32:16.407Z,2.75
2022-08-27T03:34:43.013Z,2.70
2022-08-27T03:37:09.610Z,2.78
2022-08-27T03:39:36.225Z,2.30
2022-08-27T03:42:03.189Z,2.33
2022-08-27T03:44:30.007Z,2.50
2022-08-27T03:46:56.795Z,2.78
2022-08-27T03:49:24.149Z,3.25
2022-08-27T03:51:52.520Z,2.75
2022-08-27T03:54:19.311Z,2.65
2022-08-27T03:56:47.098Z,2.90
2022-08-27T03:59:15.659Z,3.92
2022-08-27T04:01:43.345Z,3.35
2022-08-27T04:04:09.993Z,4.65
2022-08-27T04:06:36.670Z,3.90
2022-08-27T04:09:04.600Z,3.50
2022-08-27T04:11:34.530Z,3.85
2022-08-27T04:14:04.512Z,3.40
2022-08-27T04:16:44.872Z,3.90
2022-08-27T04:19:12.959Z,4.10
2022-08-27T04:21:42.960Z,4.03
2022-08-27T04:24:11.235Z,3.80
2022-08-27T04:26:40.493Z,3.17
2022-08-27T04:29:07.478Z,3.60
2022-08-27T04:31:35.558Z,3.50
2022-08-27T04:34:02.642Z,3.85
2022-08-27T04:36:29.315Z,3.15
2022-08-27T04:38:55.883Z,3.15
2022-08-27T04:41:23.274Z,3.97
2022-08-27T04:43:53.027Z,4.43
2022-08-27T04:46:21.994Z,4.15
2022-08-27T04:48:49.139Z,3.78
2022-08-27T04:51:16.599Z,3.78
2022-08-27T04:53:44.967Z,3.70
2022-08-27T04:56:16.913Z,3.75
2022-08-27T05:01:17.228Z,3.15
2022-08-27T05:03:44.284Z,2.95
2022-08-27T05:06:12.435Z,2.88
2022-08-27T05:08:39.889Z,3.58
2022-08-27T05:11:15.126Z,3.75
2022-08-27T05:13:45.659Z,3.33
2022-08-27T05:16:20.765Z,3.00
2022-08-27T05:18:48.831Z,2.80
2022-08-27T05:21:27.618Z,3.22
2022-08-27T05:23:56.597Z,3.25
2022-08-27T05:26:23.634Z,3.60
2022-08-27T05:28:50.310Z,3.00
2022-08-27T05:31:19.652Z,3.10
2022-08-27T05:33:47.598Z,3.00
2022-08-27T05:36:17.500Z,3.38
2022-08-27T05:38:44.181Z,4.63
2022-08-27T05:41:14.461Z,4.60
2022-08-27T05:43:46.503Z,3.83
2022-08-27T05:46:17.670Z,4.70
2022-08-27T05:48:44.697Z,3.35
2022-08-27T05:51:19.793Z,4.47
2022-08-27T05:53:56.579Z,4.53
2022-08-27T05:56:25.813Z,3.75
2022-08-27T05:59:10.742Z,4.15
2022-08-27T06:01:47.355Z,3.78
2022-08-27T06:04:17.652Z,3.25
2022-08-27T06:06:45.708Z,4.80
2022-08-27T06:09:15.235Z,4.65
2022-08-27T06:11:42.033Z,4.68
2022-08-27T06:14:09.665Z,4.70
2022-08-27T06:16:38.203Z,4.80
2022-08-27T06:19:06.085Z,5.13
2022-08-27T06:21:33.504Z,4.53
2022-08-27T06:24:00.859Z,5.45
2022-08-27T06:26:28.239Z,4.22
2022-08-27T06:28:55.354Z,4.57
2022-08-27T06:31:25.654Z,3.17
2022-08-27T06:33:53.994Z,4.00
2022-08-27T06:36:26.038Z,3.92
2022-08-27T06:38:54.376Z,4.03
2022-08-27T06:41:24.602Z,4.40
2022-08-27T06:43:52.695Z,4.65
2022-08-27T06:46:22.542Z,4.97
2022-08-27T06:48:56.487Z,3.85
2022-08-27T06:51:26.896Z,3.60
2022-08-27T06:53:55.735Z,4.38
2022-08-27T06:56:23.316Z,4.90
2022-08-27T06:58:58.227Z,5.90
2022-08-27T07:01:28.291Z,5.30
2022-08-27T07:03:59.903Z,4.25
2022-08-27T07:06:29.092Z,6.65
2022-08-27T07:08:57.258Z,6.65
2022-08-27T07:11:24.844Z,7.35
2022-08-27T07:13:51.533Z,4.82
2022-08-27T07:16:25.366Z,6.80
2022-08-27T07:18:54.558Z,5.93
2022-08-27T07:21:25.676Z,7.68
2022-08-27T07:23:54.528Z,8.18
2022-08-27T07:26:23.464Z,8.15
2022-08-27T07:28:50.860Z,5.85
2022-08-27T07:31:20.576Z,8.38
2022-08-27T07:33:52.639Z,7.75
2022-08-27T07:36:20.479Z,7.38
2022-08-27T07:38:53.528Z,7.00
2022-08-27T07:41:32.144Z,7.15
2022-08-27T07:44:21.114Z,7.10
2022-08-27T07:46:52.918Z,9.90
2022-08-27T07:49:22.233Z,8.38
2022-08-27T07:51:49.457Z,7.32
2022-08-27T07:54:16.448Z,9.80
2022-08-27T07:56:54.649Z,8.45
2022-08-27T07:59:24.063Z,8.25
2022-08-27T08:01:52.840Z,6.70
2022-08-27T08:04:20.454Z,6.25
2022-08-27T08:06:48.150Z,8.05
2022-08-27T08:09:15.231Z,7.28
2022-08-27T08:11:41.835Z,7.78
2022-08-27T08:14:08.454Z,8.40
2022-08-27T08:16:35.193Z,8.50
2022-08-27T08:19:02.184Z,9.05
2022-08-27T08:21:28.858Z,7.28
2022-08-27T08:23:55.456Z,8.65
2022-08-27T08:26:23.225Z,8.45
2022-08-27T08:28:49.867Z,7.72
2022-08-27T08:31:16.563Z,6.28
2022-08-27T08:33:43.454Z,7.10
2022-08-27T08:36:13.011Z,9.30
2022-08-27T08:38:41.501Z,7.68
2022-08-27T08:41:31.105Z,7.78
2022-08-27T08:44:03.476Z,7.63
2022-08-27T08:46:53.269Z,7.68
2022-08-27T08:49:32.263Z,8.05
2022-08-27T08:52:31.325Z,8.93
2022-08-27T08:55:10.966Z,7.10
2022-08-27T08:57:47.733Z,7.05
2022-08-27T09:00:15.058Z,8.10
2022-08-27T09:02:49.374Z,8.35
2022-08-27T09:05:16.875Z,7.00
2022-08-27T09:11:03.804Z,8.27
2022-08-27T09:13:37.930Z,7.43
2022-08-27T09:16:05.232Z,9.00
2022-08-27T09:18:36.701Z,6.72
2022-08-27T09:21:28.066Z,6.38
2022-08-27T09:24:13.407Z,10.85
2022-08-27T09:26:43.270Z,9.18
2022-08-27T09:29:21.464Z,11.00
2022-08-27T09:31:54.807Z,9.75
2022-08-27T09:34:23.388Z,12.32
2022-08-27T09:37:08.271Z,12.07
2022-08-27T09:39:47.528Z,9.18
2022-08-27T09:42:30.023Z,14.10
2022-08-27T09:44:57.324Z,13.85
2022-08-27T09:47:24.850Z,14.05
2022-08-27T09:50:06.627Z,12.88
2022-08-27T09:52:38.131Z,15.20
2022-08-27T09:55:06.409Z,11.60
2022-08-27T09:57:40.890Z,15.50
2022-08-27T10:00:15.389Z,14.43
2022-08-27T10:02:53.070Z,14.10
2022-08-27T10:05:29.131Z,14.23
2022-08-27T10:08:19.909Z,15.52
2022-08-27T10:10:54.818Z,15.15
2022-08-27T10:13:35.057Z,15.05
2022-08-27T10:16:23.745Z,12.40
2022-08-27T10:19:05.161Z,15.13
2022-08-27T10:21:43.048Z,13.48
2022-08-27T10:24:43.446Z,12.95
2022-08-27T10:27:49.586Z,11.90
2022-08-27T10:30:20.375Z,15.88
2022-08-27T10:33:05.401Z,16.05
2022-08-27T10:35:54.844Z,14.88
2022-08-27T10:38:56.454Z,15.00
2022-08-27T10:41:29.328Z,15.63
2022-08-27T10:44:28.062Z,13.43
2022-08-27T10:47:23.695Z,14.77
2022-08-27T10:50:11.318Z,14.80
2022-08-27T10:52:47.675Z,15.15
2022-08-27T10:55:52.575Z,13.07
2022-08-27T10:58:26.599Z,14.65
2022-08-27T11:01:11.214Z,15.48
2022-08-27T11:03:55.933Z,15.82
2022-08-27T11:06:37.095Z,12.85
2022-08-27T11:09:11.834Z,11.77
2022-08-27T11:15:00.453Z,14.98
2022-08-27T11:17:33.155Z,12.73
2022-08-27T11:20:12.055Z,13.98
2022-08-27T11:22:51.203Z,12.65
2022-08-27T11:25:36.101Z,12.07
2022-08-27T11:28:05.355Z,13.95
2022-08-27T11:30:34.706Z,13.60
2022-08-27T11:33:15.456Z,13.20
2022-08-27T11:35:51.183Z,15.30
2022-08-27T11:38:38.388Z,14.32
2022-08-27T11:41:23.447Z,15.45
2022-08-27T11:43:52.667Z,14.95
2022-08-27T11:46:28.479Z,14.27
2022-08-27T11:49:01.945Z,15.70
2022-08-27T11:51:35.274Z,14.57
2022-08-27T11:54:09.613Z,12.52
2022-08-27T11:56:42.666Z,13.35
2022-08-27T11:59:31.971Z,13.73
2022-08-27T12:02:31.533Z,13.20
2022-08-27T12:05:33.178Z,12.80
2022-08-27T12:08:01.074Z,12.77
2022-08-27T12:10:38.170Z,11.95
2022-08-27T12:13:32.292Z,13.07
2022-08-27T12:16:23.679Z,12.50
2022-08-27T12:19:26.846Z,12.65
2022-08-27T12:21:56.504Z,11.23
2022-08-27T12:24:30.874Z,11.60
2022-08-27T12:27:22.159Z,11.48
2022-08-27T12:29:54.036Z,12.13
2022-08-27T12:32:40.695Z,11.65
2022-08-27T12:35:30.353Z,10.77
2022-08-27T12:38:10.326Z,11.77
2022-08-27T12:40:46.138Z,11.57
2022-08-27T12:43:17.584Z,11.43
2022-08-27T12:45:46.671Z,10.68
2022-08-27T12:48:14.318Z,11.05
2022-08-27T12:50:40.976Z,11.63
2022-08-27T12:53:26.318Z,10.63
2022-08-27T12:56:11.608Z,10.70
2022-08-27T12:58:44.423Z,11.35
2022-08-27T13:01:28.343Z,10.10
2022-08-27T13:03:56.054Z,10.43
2022-08-27T13:06:31.057Z,9.77
2022-08-27T13:09:00.235Z,10.32
2022-08-27T13:11:31.390Z,10.10
2022-08-27T13:14:11.497Z,9.98
2022-08-27T13:16:44.053Z,9.35
2022-08-27T13:19:18.561Z,9.55
2022-08-27T13:21:48.778Z,9.05
2022-08-27T13:24:31.339Z,9.65
2022-08-27T13:26:58.146Z,9.00
2022-08-27T13:29:26.686Z,9.60
2022-08-27T13:31:53.965Z,8.38
2022-08-27T13:34:24.107Z,8.38
2022-08-27T13:37:06.938Z,8.27
2022-08-27T13:39:35.778Z,7.68
2022-08-27T13:42:04.414Z,8.02
2022-08-27T13:44:35.150Z,7.22
2022-08-27T13:47:15.920Z,8.02
2022-08-27T13:49:43.123Z,7.80
2022-08-27T13:52:16.069Z,7.47
2022-08-27T13:54:54.491Z,8.15
2022-08-27T13:57:28.353Z,7.30
2022-08-27T13:59:54.957Z,8.20
2022-08-27T14:02:28.503Z,8.13
2022-08-27T14:05:21.303Z,7.90
2022-08-27T14:07:51.210Z,6.80
2022-08-27T14:10:17.856Z,6.47
2022-08-27T14:12:47.539Z,7.25
2022-08-27T14:15:19.602Z,6.25
2022-08-27T14:17:47.656Z,7.22
2022-08-27T14:20:16.935Z,5.85
2022-08-27T14:22:44.983Z,7.18
2022-08-27T14:25:12.317Z,7.55
2022-08-27T14:27:40.696Z,6.60
2022-08-27T14:30:21.785Z,7.10
2022-08-27T14:32:58.528Z,7.20
2022-08-27T14:35:25.819Z,6.57
2022-08-27T14:37:53.044Z,7.00
2022-08-27T14:40:19.906Z,6.63
2022-08-27T14:42:46.682Z,6.72
2022-08-27T14:45:13.417Z,7.30
2022-08-27T14:47:42.019Z,7.22
2022-08-27T14:50:11.631Z,7.25
2022-08-27T14:52:41.740Z,7.15
2022-08-27T14:55:10.911Z,6.60
2022-08-27T14:57:38.884Z,6.45
2022-08-27T15:00:08.229Z,6.65
2022-08-27T15:02:35.687Z,6.30
2022-08-27T15:05:03.393Z,6.03
2022-08-27T15:07:38.796Z,6.38
2022-08-27T15:10:08.735Z,7.00
2022-08-27T15:12:35.998Z,6.63
2022-08-27T15:15:03.798Z,6.60
2022-08-27T15:17:35.015Z,6.70
2022-08-27T15:20:07.911Z,6.88
2022-08-27T15:22:37.713Z,5.93
2022-08-27T15:25:08.927Z,6.40
2022-08-27T15:27:39.160Z,6.68
2022-08-27T15:30:13.561Z,5.97
2022-08-27T15:32:43.016Z,6.93
2022-08-27T15:35:14.066Z,6.55
2022-08-27T15:37:42.217Z,7.05
2022-08-27T15:40:10.384Z,7.00
2022-08-27T15:42:37.028Z,6.00
2022-08-27T15:45:04.798Z,6.10
2022-08-27T15:47:31.671Z,7.07
2022-08-27T15:49:58.401Z,6.72
2022-08-27T15:52:25.673Z,7.15
2022-08-27T15:55:14.846Z,7.80
2022-08-27T15:57:41.514Z,6.80
2022-08-27T16:00:09.078Z,6.40
2022-08-27T16:02:35.799Z,6.35
2022-08-27T16:05:02.538Z,7.15
2022-08-27T16:07:29.095Z,7.45
2022-08-27T16:09:55.747Z,8.05
2022-08-27T16:12:27.640Z,7.82
2022-08-27T16:14:55.257Z,7.68
2022-08-27T16:17:22.572Z,7.07
2022-08-27T16:19:49.591Z,6.95
2022-08-27T16:22:16.366Z,6.95
2022-08-27T16:24:43.024Z,7.57
2022-08-27T16:27:09.888Z,7.70
2022-08-27T16:29:36.728Z,7.70
2022-08-27T16:32:04.553Z,6.55
2022-08-27T16:34:32.110Z,6.80
2022-08-27T16:36:58.676Z,6.70
2022-08-27T16:39:28.249Z,7.13
2022-08-27T16:41:58.772Z,8.00
2022-08-27T16:44:26.274Z,8.10
2022-08-27T16:46:53.456Z,7.93
2022-08-27T16:49:38.525Z,7.47
2022-08-27T16:52:07.257Z,8.85
2022-08-27T16:54:34.832Z,8.23
2022-08-27T16:57:01.803Z,8.52
2022-08-27T16:59:28.468Z,8.52
2022-08-27T17:01:55.558Z,7.80
2022-08-27T17:04:30.292Z,8.63
2022-08-27T17:06:59.208Z,8.38
2022-08-27T17:09:26.517Z,9.00
2022-08-27T17:11:57.251Z,13.73
2022-08-27T17:14:24.651Z,9.52
2022-08-27T17:16:54.070Z,8.45
2022-08-27T17:19:22.922Z,8.73
2022-08-27T17:21:50.694Z,8.82
2022-08-27T17:24:17.820Z,9.00
2022-08-27T17:26:45.055Z,9.05
2022-08-27T17:29:11.777Z,8.73
2022-08-27T17:31:42.447Z,9.80
2022-08-27T17:34:19.570Z,9.15
2022-08-27T17:36:46.296Z,9.07
2022-08-27T17:39:13.988Z,9.35
2022-08-27T17:41:43.941Z,9.18
2022-08-27T17:44:20.169Z,8.65
2022-08-27T17:46:47.293Z,9.82
2022-08-27T17:49:15.085Z,10.07
2022-08-27T17:51:41.842Z,8.73
2022-08-27T17:54:25.546Z,8.85
2022-08-27T17:56:52.230Z,8.43
2022-08-27T17:59:19.127Z,9.35
2022-08-27T18:01:46.506Z,8.73
2022-08-27T18:04:13.374Z,8.85
2022-08-27T18:06:41.210Z,8.80
2022-08-27T18:09:08.779Z,9.20
2022-08-27T18:11:35.575Z,8.63
2022-08-27T18:14:05.015Z,8.60
2022-08-27T18:16:32.328Z,8.23
2022-08-27T18:18:59.021Z,8.95
2022-08-27T18:21:26.234Z,8.60
2022-08-27T18:23:53.729Z,7.88
2022-08-27T18:26:21.643Z,8.45
2022-08-27T18:28:49.073Z,8.25
2022-08-27T18:31:18.356Z,7.15
2022-08-27T18:33:45.127Z,8.50
2022-08-27T18:36:11.860Z,7.93
2022-08-27T18:38:38.459Z,7.82
2022-08-27T18:41:06.449Z,7.82
2022-08-27T18:43:35.368Z,7.43
2022-08-27T18:46:04.012Z,7.32
2022-08-27T18:48:30.737Z,6.40
2022-08-27T18:50:59.309Z,6.78
2022-08-27T18:53:30.022Z,5.80
2022-08-27T18:55:56.680Z,5.68
2022-08-27T18:58:23.325Z,6.18
2022-08-27T19:00:54.375Z,5.25
2022-08-27T19:03:26.944Z,5.13
2022-08-27T19:05:54.894Z,5.32
2022-08-27T19:08:23.045Z,4.45
2022-08-27T19:10:49.773Z,5.10
2022-08-27T19:13:16.386Z,4.70
2022-08-27T19:15:49.140Z,4.30
2022-08-27T19:18:15.808Z,4.28
2022-08-27T19:20:42.414Z,3.97
2022-08-27T19:23:09.256Z,4.07
2022-08-27T19:25:35.949Z,4.25
2022-08-27T19:28:02.740Z,4.28
2022-08-27T19:30:29.326Z,4.10
2022-08-27T19:32:58.280Z,4.38
2022-08-27T19:35:25.440Z,3.75
2022-08-27T19:37:53.269Z,3.63
2022-08-27T19:40:22.191Z,3.53
2022-08-27T19:42:49.321Z,3.47
2022-08-27T19:45:23.137Z,3.60
2022-08-27T19:47:50.892Z,3.50
2022-08-27T19:50:18.316Z,3.72
2022-08-27T19:52:44.994Z,3.63
2022-08-27T19:55:13.910Z,3.25
2022-08-27T19:57:41.260Z,3.45
2022-08-27T20:00:09.373Z,3.47
2022-08-27T20:02:36.348Z,3.10
2022-08-27T20:05:19.540Z,3.10
2022-08-27T20:07:48.869Z,3.35
2022-08-27T20:10:16.754Z,3.50
2022-08-27T20:12:43.590Z,3.70
2022-08-27T20:15:10.593Z,3.45
2022-08-27T20:17:37.287Z,3.42
2022-08-27T20:20:05.414Z,3.90
2022-08-27T20:22:32.000Z,3.78
2022-08-27T20:24:58.554Z,3.90
2022-08-27T20:27:26.125Z,3.60
2022-08-27T20:29:54.475Z,4.03
2022-08-27T20:32:22.809Z,3.65
2022-08-27T20:34:51.538Z,3.95
2022-08-27T20:37:18.688Z,4.07
2022-08-27T20:39:45.483Z,3.63
2022-08-27T20:42:12.398Z,4.00
2022-08-27T20:44:38.985Z,3.97
2022-08-27T20:47:06.281Z,4.00
2022-08-27T20:49:35.315Z,4.65
2022-08-27T20:52:04.192Z,4.10
2022-08-27T20:54:33.864Z,4.50
2022-08-27T20:57:01.008Z,4.60
2022-08-27T20:59:46.210Z,4.88
2022-08-27T21:02:14.657Z,4.70
2022-08-27T21:04:46.541Z,6.03
2022-08-27T21:07:14.467Z,6.10
2022-08-27T21:09:55.600Z,6.13
2022-08-27T21:12:23.464Z,5.72
2022-08-27T21:14:50.222Z,5.82
2022-08-27T21:17:21.580Z,6.32
2022-08-27T21:19:48.119Z,6.82
2022-08-27T21:22:14.750Z,6.80
2022-08-27T21:24:41.296Z,7.13
2022-08-27T21:27:07.833Z,7.28
2022-08-27T21:29:34.452Z,7.63
2022-08-27T21:32:01.012Z,8.25
2022-08-27T21:34:28.228Z,8.60
2022-08-27T21:36:54.840Z,8.50
2022-08-27T21:39:21.467Z,8.48
2022-08-27T21:41:48.184Z,8.32
2022-08-27T21:44:14.846Z,9.75
2022-08-27T21:46:41.709Z,10.02
2022-08-27T21:49:08.311Z,10.77
2022-08-27T21:51:34.884Z,10.48
2022-08-27T21:54:01.525Z,10.88
2022-08-27T21:56:28.541Z,12.00
2022-08-27T21:58:55.083Z,11.40
2022-08-27T22:01:21.750Z,11.80
2022-08-27T22:03:50.801Z,12.10
2022-08-27T22:06:18.703Z,12.90
2022-08-27T22:08:45.630Z,13.02
2022-08-27T22:11:12.913Z,13.10
2022-08-27T22:13:39.911Z,15.75
2022-08-27T22:16:06.826Z,15.20
2022-08-27T22:18:33.936Z,14.07
2022-08-27T22:21:01.095Z,14.48
2022-08-27T22:23:27.803Z,14.60
2022-08-27T22:25:54.395Z,15.45
2022-08-27T22:28:21.114Z,13.57
2022-08-27T22:30:47.655Z,15.43
2022-08-27T22:33:14.997Z,14.43
2022-08-27T22:35:42.199Z,14.63
2022-08-27T22:38:10.128Z,14.13
2022-08-27T22:40:38.133Z,14.57
2022-08-27T22:43:05.637Z,13.40
2022-08-27T22:45:32.284Z,14.27
2022-08-27T22:47:58.883Z,13.95
2022-08-27T22:50:25.579Z,14.07
2022-08-27T22:52:52.470Z,12.85
2022-08-27T22:55:21.614Z,12.90
2022-08-27T22:57:50.157Z,13.13
2022-08-27T23:00:37.239Z,12.88
2022-08-27T23:03:06.831Z,12.23
2022-08-27T23:05:40.360Z,12.43
2022-08-27T23:08:09.799Z,13.00
2022-08-27T23:10:37.514Z,11.90
2022-08-27T23:13:06.885Z,12.25
2022-08-27T23:15:33.597Z,11.55
2022-08-27T23:18:01.648Z,12.25
2022-08-27T23:20:29.353Z,11.88
2022-08-27T23:22:56.740Z,12.20
2022-08-27T23:25:44.317Z,10.95
2022-08-27T23:28:14.649Z,12.43
2022-08-27T23:30:41.676Z,11.82
2022-08-27T23:33:08.222Z,11.18
2022-08-27T23:35:35.309Z,11.75
2022-08-27T23:38:02.162Z,11.65
2022-08-27T23:40:28.847Z,11.73
2022-08-27T23:42:55.406Z,10.85
2022-08-27T23:45:25.288Z,10.75
2022-08-27T23:47:51.949Z,11.15
2022-08-27T23:50:19.644Z,10.77
2022-08-27T23:52:46.299Z,10.93
2022-08-27T23:55:13.135Z,9.73
2022-08-27T23:57:40.079Z,10.30
